createdAt,value
2018-09-25T00:00:47.960Z,3.10
2018-09-25T00:03:23.024Z,2.50
2018-09-25T00:05:58.305Z,2.90
2018-09-25T00:08:34.463Z,2.80
2018-09-25T00:11:14.369Z,2.70
2018-09-25T00:13:50.633Z,3.00
2018-09-25T00:16:25.536Z,2.95
2018-09-25T00:19:00.600Z,3.00
2018-09-25T00:21:36.488Z,2.47
2018-09-25T00:24:11.424Z,2.55
2018-09-25T00:26:46.531Z,2.35
2018-09-25T00:29:23.469Z,1.82
2018-09-25T00:32:01.617Z,2.05
2018-09-25T00:34:38.745Z,2.62
2018-09-25T00:37:15.620Z,1.95
2018-09-25T00:39:50.329Z,1.62
2018-09-25T00:42:32.904Z,2.60
2018-09-25T00:45:08.101Z,2.30
2018-09-25T00:47:43.125Z,2.50
2018-09-25T00:50:18.056Z,2.58
2018-09-25T00:52:56.327Z,2.42
2018-09-25T00:55:33.312Z,2.75
2018-09-25T00:58:08.592Z,1.85
2018-09-25T01:00:45.896Z,2.47
2018-09-25T01:03:20.984Z,2.15
2018-09-25T01:05:57.916Z,2.30
2018-09-25T01:08:33.992Z,2.25
2018-09-25T01:11:12.128Z,2.15
2018-09-25T01:13:47.564Z,2.02
2018-09-25T01:16:22.528Z,1.70
2018-09-25T01:18:59.602Z,2.20
2018-09-25T01:21:34.736Z,1.95
2018-09-25T01:24:09.756Z,2.05
2018-09-25T01:26:44.684Z,1.70
2018-09-25T01:29:20.748Z,2.50
2018-09-25T01:31:57.737Z,2.42
2018-09-25T01:34:34.608Z,2.33
2018-09-25T01:37:09.932Z,2.02
2018-09-25T01:39:44.904Z,1.95
2018-09-25T01:42:23.524Z,2.55
2018-09-25T01:44:58.612Z,2.60
2018-09-25T01:47:34.512Z,2.27
2018-09-25T01:50:09.336Z,1.62
2018-09-25T01:52:45.441Z,1.60
2018-09-25T01:55:21.356Z,1.40
2018-09-25T01:57:56.484Z,1.50
2018-09-25T02:00:33.672Z,1.55
2018-09-25T02:03:08.581Z,1.27
2018-09-25T02:05:45.591Z,1.60
2018-09-25T02:08:25.436Z,1.82
2018-09-25T02:11:00.505Z,1.50
2018-09-25T02:13:35.648Z,2.12
2018-09-25T02:16:10.951Z,1.45
2018-09-25T02:18:46.021Z,1.75
2018-09-25T02:21:26.012Z,1.95
2018-09-25T02:24:00.812Z,2.20
2018-09-25T02:26:36.638Z,2.00
2018-09-25T02:29:11.973Z,1.80
2018-09-25T02:31:47.120Z,1.52
2018-09-25T02:34:25.655Z,1.25
2018-09-25T02:37:02.680Z,1.85
2018-09-25T02:39:37.748Z,1.50
2018-09-25T02:42:13.514Z,1.55
2018-09-25T02:44:48.464Z,1.72
2018-09-25T02:47:25.428Z,1.80
2018-09-25T02:50:01.324Z,1.80
2018-09-25T02:52:36.808Z,1.60
2018-09-25T02:55:11.932Z,1.85
2018-09-25T02:57:46.922Z,2.00
2018-09-25T03:00:22.045Z,1.60
2018-09-25T03:02:57.228Z,2.00
2018-09-25T03:05:33.372Z,1.20
2018-09-25T03:08:10.264Z,1.17
2018-09-25T03:10:56.447Z,1.70
2018-09-25T03:13:35.016Z,2.67
2018-09-25T03:16:15.040Z,2.42
2018-09-25T03:18:50.100Z,2.37
2018-09-25T03:21:25.196Z,1.40
2018-09-25T03:24:00.184Z,1.92
2018-09-25T03:26:35.300Z,1.82
2018-09-25T03:29:15.948Z,2.77
2018-09-25T03:31:55.732Z,3.25
2018-09-25T03:34:32.752Z,3.80
2018-09-25T03:37:07.768Z,2.60
2018-09-25T03:39:42.844Z,2.47
2018-09-25T03:42:17.681Z,1.95
2018-09-25T03:44:56.552Z,2.30
2018-09-25T03:47:31.644Z,2.10
2018-09-25T03:50:07.712Z,1.72
2018-09-25T03:52:43.860Z,1.55
2018-09-25T03:55:20.899Z,2.55
2018-09-25T03:57:57.068Z,2.20
2018-09-25T04:00:33.276Z,2.12
2018-09-25T04:03:08.145Z,1.35
2018-09-25T04:05:47.868Z,1.35
2018-09-25T04:08:23.194Z,1.15
2018-09-25T04:10:58.836Z,1.82
2018-09-25T04:13:34.899Z,1.90
2018-09-25T04:16:10.098Z,2.20
2018-09-25T04:18:45.177Z,2.55
2018-09-25T04:21:27.052Z,1.85
2018-09-25T04:24:16.352Z,1.40
2018-09-25T04:26:57.213Z,1.52
2018-09-25T04:29:33.356Z,1.17
2018-09-25T04:32:08.524Z,1.40
2018-09-25T04:34:47.980Z,1.10
2018-09-25T04:37:25.052Z,1.67
2018-09-25T04:40:00.141Z,1.45
2018-09-25T04:42:38.188Z,1.82
2018-09-25T04:45:13.368Z,1.82
2018-09-25T04:47:48.277Z,1.45
2018-09-25T04:50:26.077Z,1.92
2018-09-25T04:53:09.484Z,2.02
2018-09-25T04:55:44.556Z,1.35
2018-09-25T04:58:25.389Z,1.52
2018-09-25T05:01:02.544Z,1.32
2018-09-25T05:03:37.770Z,1.50
2018-09-25T05:06:13.772Z,1.90
2018-09-25T05:08:53.648Z,1.90
2018-09-25T05:11:34.404Z,2.10
2018-09-25T05:14:09.596Z,1.85
2018-09-25T05:16:50.164Z,2.12
2018-09-25T05:19:25.157Z,1.70
2018-09-25T05:22:00.124Z,1.55
2018-09-25T05:24:35.159Z,2.10
2018-09-25T05:27:11.353Z,1.50
2018-09-25T05:29:48.167Z,2.10
2018-09-25T05:32:30.652Z,1.87
2018-09-25T05:35:13.072Z,1.42
2018-09-25T05:37:49.336Z,2.35
2018-09-25T05:40:35.232Z,1.70
2018-09-25T05:43:12.721Z,1.70
2018-09-25T05:45:48.816Z,1.40
2018-09-25T05:48:23.612Z,1.75
2018-09-25T05:51:02.712Z,2.10
2018-09-25T05:53:37.864Z,1.90
2018-09-25T05:56:13.784Z,1.10
2018-09-25T05:58:48.589Z,1.75
2018-09-25T06:01:23.575Z,1.95
2018-09-25T06:03:59.460Z,1.72
2018-09-25T06:06:37.932Z,2.00
2018-09-25T06:09:16.836Z,3.33
2018-09-25T06:11:55.576Z,3.47
2018-09-25T06:14:31.485Z,4.17
2018-09-25T06:17:06.558Z,6.60
2018-09-25T06:19:41.700Z,7.80
2018-09-25T06:22:16.648Z,6.75
2018-09-25T06:24:57.164Z,7.25
2018-09-25T06:27:33.224Z,7.17
2018-09-25T06:30:08.377Z,7.37
2018-09-25T06:32:49.128Z,5.92
2018-09-25T06:35:24.153Z,7.80
2018-09-25T06:38:01.180Z,8.13
2018-09-25T06:40:52.424Z,8.35
2018-09-25T06:43:33.814Z,7.90
2018-09-25T06:46:08.929Z,7.30
2018-09-25T06:48:49.700Z,7.87
2018-09-25T06:51:29.139Z,6.00
2018-09-25T06:54:07.385Z,3.70
2018-09-25T06:56:42.564Z,2.77
2018-09-25T06:59:18.741Z,3.43
2018-09-25T07:01:55.760Z,2.30
2018-09-25T07:04:31.056Z,2.13
2018-09-25T07:07:06.228Z,3.03
2018-09-25T07:09:41.418Z,2.27
2018-09-25T07:12:16.360Z,2.60
2018-09-25T07:14:52.312Z,2.07
2018-09-25T07:17:31.131Z,3.23
2018-09-25T07:20:06.199Z,2.83
2018-09-25T07:22:42.183Z,2.50
2018-09-25T07:25:20.712Z,2.70
2018-09-25T07:27:56.603Z,2.67
2018-09-25T07:30:31.580Z,2.30
2018-09-25T07:33:06.716Z,2.70
2018-09-25T07:35:41.883Z,2.03
2018-09-25T07:38:17.020Z,3.17
2018-09-25T07:40:52.064Z,1.87
2018-09-25T07:43:31.008Z,2.90
2018-09-25T07:46:05.969Z,2.30
2018-09-25T07:48:41.319Z,2.30
2018-09-25T07:51:16.364Z,2.30
2018-09-25T07:53:51.172Z,2.30
2018-09-25T07:56:28.328Z,2.20
2018-09-25T07:59:04.549Z,2.00
2018-09-25T08:01:44.725Z,2.10
2018-09-25T08:04:20.948Z,2.33
2018-09-25T08:06:56.900Z,1.60
2018-09-25T08:09:32.092Z,1.70
2018-09-25T08:12:07.102Z,2.03
2018-09-25T08:14:49.695Z,2.20
2018-09-25T08:17:24.724Z,2.50
2018-09-25T08:19:59.799Z,1.23
2018-09-25T08:22:42.580Z,1.40
2018-09-25T08:25:17.828Z,1.33
2018-09-25T08:27:54.033Z,2.90
2018-09-25T08:30:30.024Z,1.57
2018-09-25T08:33:05.124Z,1.20
2018-09-25T08:35:40.159Z,1.20
2018-09-25T08:38:15.044Z,2.07
2018-09-25T08:40:51.240Z,1.50
2018-09-25T08:43:31.668Z,0.97
2018-09-25T08:46:06.632Z,1.90
2018-09-25T08:48:45.968Z,1.23
2018-09-25T08:51:25.643Z,1.20
2018-09-25T08:54:13.572Z,1.00
2018-09-25T08:56:54.307Z,1.60
2018-09-25T08:59:29.343Z,1.00
2018-09-25T09:02:06.624Z,2.40
2018-09-25T09:04:41.579Z,1.00
2018-09-25T09:07:16.600Z,1.13
2018-09-25T09:09:51.703Z,1.10
2018-09-25T09:12:26.775Z,1.30
2018-09-25T09:15:01.773Z,1.23
2018-09-25T09:17:37.983Z,1.30
2018-09-25T09:20:14.264Z,1.07
2018-09-25T09:22:50.316Z,0.93
2018-09-25T09:25:26.280Z,1.63
2018-09-25T09:28:01.368Z,1.27
2018-09-25T09:30:36.527Z,1.63
2018-09-25T09:33:11.627Z,1.40
2018-09-25T09:35:46.456Z,1.50
2018-09-25T09:38:21.418Z,0.97
2018-09-25T09:40:56.558Z,1.13
2018-09-25T09:43:31.544Z,1.50
2018-09-25T09:46:06.524Z,1.67
2018-09-25T09:48:41.351Z,1.10
2018-09-25T09:51:16.351Z,1.30
2018-09-25T09:53:51.495Z,1.20
2018-09-25T09:56:26.710Z,1.10
2018-09-25T09:59:01.872Z,1.63
2018-09-25T10:01:40.500Z,0.80
2018-09-25T10:04:15.383Z,1.43
2018-09-25T10:06:50.626Z,0.97
2018-09-25T10:09:30.211Z,1.07
2018-09-25T10:12:09.207Z,1.23
2018-09-25T10:14:44.327Z,0.90
2018-09-25T10:17:19.667Z,1.10
2018-09-25T10:19:54.727Z,1.80
2018-09-25T10:22:29.931Z,1.40
2018-09-25T10:25:05.755Z,1.20
2018-09-25T10:27:42.683Z,1.00
2018-09-25T10:30:31.311Z,1.50
2018-09-25T10:33:07.379Z,1.10
2018-09-25T10:35:42.451Z,1.07
2018-09-25T10:38:22.952Z,1.30
2018-09-25T10:40:57.884Z,1.00
2018-09-25T10:43:34.843Z,1.43
2018-09-25T10:46:09.963Z,1.17
2018-09-25T10:48:44.947Z,1.50
2018-09-25T10:51:20.115Z,1.43
2018-09-25T10:53:56.348Z,1.10
2018-09-25T10:56:31.396Z,1.00
2018-09-25T10:59:09.463Z,1.00
2018-09-25T11:01:44.510Z,1.00
2018-09-25T11:04:20.568Z,1.33
2018-09-25T11:06:55.524Z,1.00
2018-09-25T11:09:30.540Z,1.10
2018-09-25T11:12:05.624Z,1.00
2018-09-25T11:14:40.804Z,1.10
2018-09-25T11:17:15.919Z,1.40
2018-09-25T11:19:53.056Z,1.50
2018-09-25T11:22:28.200Z,1.20
2018-09-25T11:25:04.375Z,1.30
2018-09-25T11:27:39.504Z,1.30
2018-09-25T11:30:14.616Z,1.20
2018-09-25T11:32:49.580Z,1.20
2018-09-25T11:35:24.917Z,1.33
2018-09-25T11:38:01.112Z,0.90
2018-09-25T11:40:36.064Z,1.97
2018-09-25T11:43:10.996Z,0.77
2018-09-25T11:45:45.925Z,1.40
2018-09-25T11:48:22.035Z,1.23
2018-09-25T11:50:59.040Z,1.50
2018-09-25T11:53:34.108Z,0.90
2018-09-25T11:56:09.128Z,0.97
2018-09-25T11:58:44.192Z,1.43
2018-09-25T12:01:19.260Z,1.00
2018-09-25T12:03:58.235Z,1.17
2018-09-25T12:06:39.061Z,0.90
2018-09-25T12:09:14.364Z,1.10
2018-09-25T12:11:51.344Z,1.00
2018-09-25T12:14:28.503Z,1.03
2018-09-25T12:17:05.256Z,1.17
2018-09-25T12:19:40.356Z,1.10
2018-09-25T12:22:18.807Z,1.20
2018-09-25T12:24:54.815Z,1.10
2018-09-25T12:27:30.971Z,1.57
2018-09-25T12:30:06.175Z,1.07
2018-09-25T12:32:41.396Z,1.37
2018-09-25T12:35:16.451Z,1.20
2018-09-25T12:37:54.991Z,1.87
2018-09-25T12:40:35.124Z,1.13
2018-09-25T12:43:13.063Z,1.00
2018-09-25T12:45:49.219Z,1.10
2018-09-25T12:48:28.447Z,1.20
2018-09-25T12:51:04.603Z,0.90
2018-09-25T12:53:39.779Z,1.40
2018-09-25T12:56:14.903Z,1.13
2018-09-25T12:58:49.787Z,0.90
2018-09-25T13:01:26.869Z,1.50
2018-09-25T13:04:06.795Z,1.03
2018-09-25T13:06:41.887Z,1.93
2018-09-25T13:09:17.936Z,1.00
2018-09-25T13:11:53.091Z,1.17
2018-09-25T13:14:28.071Z,1.83
2018-09-25T13:17:10.655Z,1.10
2018-09-25T13:19:52.835Z,1.40
2018-09-25T13:22:27.571Z,0.97
2018-09-25T13:25:04.415Z,1.53
2018-09-25T13:27:40.481Z,1.07
2018-09-25T13:30:15.507Z,0.93
2018-09-25T13:32:54.927Z,1.33
2018-09-25T13:35:31.031Z,1.47
2018-09-25T13:38:08.180Z,1.40
2018-09-25T13:40:44.251Z,1.40
2018-09-25T13:43:20.420Z,1.03
2018-09-25T13:45:55.663Z,1.30
2018-09-25T13:48:31.624Z,1.00
2018-09-25T13:51:08.463Z,1.40
2018-09-25T13:53:47.823Z,1.50
2018-09-25T13:56:23.940Z,1.30
2018-09-25T13:58:58.961Z,1.00
2018-09-25T14:01:34.063Z,1.00
2018-09-25T14:04:09.088Z,1.20
2018-09-25T14:06:47.607Z,1.23
2018-09-25T14:09:26.721Z,1.10
2018-09-25T14:12:01.732Z,1.23
2018-09-25T14:14:38.879Z,1.33
2018-09-25T14:17:13.931Z,1.30
2018-09-25T14:19:50.119Z,1.47
2018-09-25T14:22:26.009Z,1.07
2018-09-25T14:25:01.184Z,1.13
2018-09-25T14:27:39.966Z,1.60
2018-09-25T14:30:15.975Z,1.20
2018-09-25T14:32:55.832Z,1.60
2018-09-25T14:35:34.272Z,2.17
2018-09-25T14:38:10.278Z,1.20
2018-09-25T14:40:50.027Z,1.63
2018-09-25T14:43:25.167Z,0.90
2018-09-25T14:46:00.256Z,1.17
2018-09-25T14:48:35.384Z,1.13
2018-09-25T14:51:13.359Z,1.30
2018-09-25T14:53:50.476Z,1.70
2018-09-25T14:56:26.497Z,1.30
2018-09-25T14:59:01.596Z,1.10
2018-09-25T15:01:37.563Z,1.00
2018-09-25T15:04:12.651Z,1.60
2018-09-25T15:06:47.879Z,1.50
2018-09-25T15:09:25.868Z,1.10
2018-09-25T15:12:01.907Z,1.20
2018-09-25T15:14:37.895Z,1.10
2018-09-25T15:17:12.716Z,1.10
2018-09-25T15:19:47.716Z,0.97
2018-09-25T15:22:28.852Z,1.20
2018-09-25T15:25:04.943Z,1.27
2018-09-25T15:27:40.121Z,1.40
2018-09-25T15:30:14.875Z,1.83
2018-09-25T15:32:54.839Z,1.23
2018-09-25T15:35:33.652Z,1.10
2018-09-25T15:38:08.571Z,1.10
2018-09-25T15:40:43.839Z,1.40
2018-09-25T15:43:18.829Z,1.57
2018-09-25T15:45:53.907Z,1.43
2018-09-25T15:48:29.043Z,1.37
2018-09-25T15:51:05.043Z,1.10
2018-09-25T15:53:40.093Z,1.53
2018-09-25T15:56:15.071Z,1.20
2018-09-25T15:58:50.455Z,1.10
2018-09-25T16:01:29.187Z,0.90
2018-09-25T16:04:04.387Z,1.23
2018-09-25T16:06:39.491Z,1.00
2018-09-25T16:09:14.713Z,1.53
2018-09-25T16:11:49.915Z,1.10
2018-09-25T16:14:25.267Z,1.67
2018-09-25T16:17:00.159Z,1.40
2018-09-25T16:19:36.388Z,1.23
2018-09-25T16:22:19.531Z,1.40
2018-09-25T16:24:55.663Z,1.50
2018-09-25T16:27:31.746Z,0.90
2018-09-25T16:30:11.106Z,1.10
2018-09-25T16:32:46.115Z,1.50
2018-09-25T16:35:21.999Z,1.20
2018-09-25T16:37:56.927Z,1.00
2018-09-25T16:40:32.144Z,1.00
2018-09-25T16:43:08.050Z,1.83
2018-09-25T16:45:45.178Z,1.13
2018-09-25T16:48:20.299Z,1.23
2018-09-25T16:50:55.462Z,1.33
2018-09-25T16:53:30.643Z,1.40
2018-09-25T16:56:06.723Z,1.00
2018-09-25T16:58:43.727Z,1.43
2018-09-25T17:01:21.907Z,1.10
2018-09-25T17:03:56.974Z,1.37
2018-09-25T17:06:35.953Z,1.00
2018-09-25T17:09:12.799Z,1.17
2018-09-25T17:11:47.984Z,1.20
2018-09-25T17:14:23.122Z,2.13
2018-09-25T17:16:59.175Z,1.93
2018-09-25T17:19:35.060Z,3.00
2018-09-25T17:22:17.255Z,2.23
2018-09-25T17:24:52.933Z,2.63
2018-09-25T17:27:28.660Z,1.23
2018-09-25T17:30:07.124Z,1.77
2018-09-25T17:32:44.491Z,2.40
2018-09-25T17:35:19.484Z,2.77
2018-09-25T17:37:55.147Z,3.83
2018-09-25T17:40:32.291Z,3.90
2018-09-25T17:43:08.315Z,4.33
2018-09-25T17:45:45.571Z,4.05
2018-09-25T17:48:21.687Z,3.87
2018-09-25T17:50:58.800Z,3.43
2018-09-25T17:53:37.574Z,4.10
2018-09-25T17:56:12.754Z,3.33
2018-09-25T17:58:48.875Z,3.85
2018-09-25T18:01:25.235Z,3.10
2018-09-25T18:04:04.716Z,3.60
2018-09-25T18:06:40.615Z,3.52
2018-09-25T18:09:19.596Z,4.42
2018-09-25T18:11:55.043Z,5.00
2018-09-25T18:14:34.610Z,5.40
2018-09-25T18:17:10.523Z,4.75
2018-09-25T18:19:47.501Z,4.40
2018-09-25T18:22:23.366Z,2.98
2018-09-25T18:25:01.783Z,2.60
2018-09-25T18:27:41.492Z,2.20
2018-09-25T18:30:17.695Z,2.50
2018-09-25T18:33:03.875Z,1.95
2018-09-25T18:35:39.871Z,1.80
2018-09-25T18:38:16.090Z,2.08
2018-09-25T18:40:51.901Z,2.52
2018-09-25T18:43:29.162Z,2.37
2018-09-25T18:46:07.411Z,2.52
2018-09-25T18:48:45.795Z,3.25
2018-09-25T18:51:24.227Z,1.95
2018-09-25T18:53:59.247Z,2.02
2018-09-25T18:56:34.423Z,2.47
2018-09-25T18:59:09.315Z,1.70
2018-09-25T19:01:44.391Z,2.17
2018-09-25T19:04:24.327Z,1.90
2018-09-25T19:06:59.359Z,1.72
2018-09-25T19:09:35.510Z,2.85
2018-09-25T19:12:13.071Z,2.90
2018-09-25T19:14:48.314Z,2.80
2018-09-25T19:17:24.406Z,2.90
2018-09-25T19:20:01.450Z,2.58
2018-09-25T19:22:36.490Z,3.00
2018-09-25T19:25:11.391Z,2.02
2018-09-25T19:27:47.466Z,3.62
2018-09-25T19:30:22.305Z,3.00
2018-09-25T19:33:01.094Z,2.50
2018-09-25T19:35:36.865Z,3.50
2018-09-25T19:38:11.582Z,12.10
2018-09-25T19:40:47.527Z,8.18
2018-09-25T19:43:22.731Z,10.43
2018-09-25T19:45:58.676Z,9.85
2018-09-25T19:48:33.750Z,12.10
2018-09-25T19:51:09.790Z,12.43
2018-09-25T19:53:45.986Z,9.53
2018-09-25T19:56:21.211Z,9.10
2018-09-25T19:58:57.217Z,6.62
2018-09-25T20:01:33.399Z,9.13
2018-09-25T20:04:10.647Z,5.80
2018-09-25T20:06:49.927Z,7.35
2018-09-25T20:09:24.943Z,5.60
2018-09-25T20:12:02.850Z,5.40
2018-09-25T20:14:39.916Z,3.60
2018-09-25T20:17:16.907Z,2.85
2018-09-25T20:19:53.105Z,3.90
2018-09-25T20:22:28.153Z,3.33
2018-09-25T20:25:02.936Z,3.92
2018-09-25T20:27:39.830Z,3.95
2018-09-25T20:30:16.694Z,3.80
2018-09-25T20:32:54.743Z,3.47
2018-09-25T20:35:31.818Z,3.87
2018-09-25T20:38:09.527Z,3.83
2018-09-25T20:40:44.707Z,3.65
2018-09-25T20:43:20.821Z,3.00
2018-09-25T20:45:59.819Z,2.55
2018-09-25T20:48:34.958Z,2.67
2018-09-25T20:51:14.057Z,3.08
2018-09-25T20:53:53.382Z,2.87
2018-09-25T20:56:29.401Z,2.20
2018-09-25T20:59:04.490Z,2.72
2018-09-25T21:01:40.495Z,2.10
2018-09-25T21:04:15.364Z,2.65
2018-09-25T21:06:52.334Z,1.85
2018-09-25T21:09:27.122Z,2.45
2018-09-25T21:12:02.185Z,2.22
2018-09-25T21:14:38.330Z,2.25
2018-09-25T21:17:18.790Z,2.67
2018-09-25T21:19:56.146Z,2.20
2018-09-25T21:22:34.538Z,2.77
2018-09-25T21:25:09.714Z,2.35
2018-09-25T21:27:45.790Z,2.55
2018-09-25T21:30:20.898Z,3.05
2018-09-25T21:32:57.047Z,2.15
2018-09-25T21:35:34.249Z,2.40
2018-09-25T21:38:09.498Z,2.05
2018-09-25T21:40:44.738Z,1.70
2018-09-25T21:43:20.020Z,1.72
2018-09-25T21:45:57.138Z,1.80
2018-09-25T21:48:35.734Z,1.80
2018-09-25T21:51:10.860Z,1.30
2018-09-25T21:53:45.718Z,2.20
2018-09-25T21:56:20.713Z,1.40
2018-09-25T21:58:57.498Z,1.47
2018-09-25T22:01:32.482Z,1.35
2018-09-25T22:04:09.526Z,1.80
2018-09-25T22:06:45.594Z,1.85
2018-09-25T22:09:21.574Z,1.65
2018-09-25T22:11:56.774Z,1.87
2018-09-25T22:14:36.570Z,1.40
2018-09-25T22:17:11.676Z,2.10
2018-09-25T22:19:47.787Z,1.25
2018-09-25T22:22:24.878Z,1.40
2018-09-25T22:25:03.878Z,1.35
2018-09-25T22:27:39.070Z,1.65
2018-09-25T22:30:14.387Z,1.25
2018-09-25T22:32:49.504Z,1.20
2018-09-25T22:35:25.778Z,1.50
2018-09-25T22:38:01.739Z,1.92
2018-09-25T22:40:38.946Z,1.40
2018-09-25T22:43:18.554Z,1.65
2018-09-25T22:45:54.610Z,1.30
2018-09-25T22:48:29.890Z,1.45
2018-09-25T22:51:04.902Z,1.25
2018-09-25T22:53:41.078Z,1.60
2018-09-25T22:56:18.059Z,1.80
2018-09-25T22:58:52.975Z,1.35
2018-09-25T23:01:28.164Z,1.20
2018-09-25T23:04:03.470Z,0.90
2018-09-25T23:06:38.658Z,1.47
2018-09-25T23:09:14.694Z,1.00
2018-09-25T23:11:49.802Z,1.32
2018-09-25T23:14:24.762Z,1.37
2018-09-25T23:17:01.814Z,1.20
2018-09-25T23:19:36.715Z,1.00
2018-09-25T23:22:17.706Z,1.30
2018-09-25T23:24:52.542Z,1.22
2018-09-25T23:27:32.850Z,1.27
2018-09-25T23:30:07.726Z,1.12
2018-09-25T23:32:42.942Z,1.00
2018-09-25T23:35:18.195Z,1.52
2018-09-25T23:37:58.110Z,1.60
2018-09-25T23:40:33.842Z,1.55
2018-09-25T23:43:40.054Z,1.15
2018-09-25T23:46:17.126Z,1.40
2018-09-25T23:48:59.966Z,1.20
2018-09-25T23:51:36.081Z,1.17
2018-09-25T23:58:29.087Z,1.25
